Accokeek, Maryland
Current Conditions -  °F | °C
As of 3:23 PM on Wednesday 26 Nov 2014 (Local Time) from KDAA Reporting Station
Unknown Precip Unknown Precip  
Wind Chill: -3°   Ceiling: 1900
Heat Index:   Visibility: 8mi
Dew Point:   Wind: 13mph
Humidity: 87%   Direction: 310°NW
Pressure: 29.95"   Gusts: NA
Location:  38.67°N, 77.03°W
Report Text: KDAA 262023Z AUTO 31011KT 8SM UP SCT009 OVC019 02/00 A2995 RMK AO2 RAB2018E2019
Loading
Personal Weather Stations






























Interactive Weather Map New forecast layout! Learn more

10-Day Weather Forecast

Advertisements
Track Severe Weather on mobile